Weather at Toraja Airport

Public forecast

Using degrees Celsius for public forecast. Weather courtesy of forecast.io.

Closest aviation weather report (METAR) to Toraja Airport

Closest report is Hasanuddin International Airport, 114.7 nm (212.4 km) S.

2024/06/16 21:00 (retrieved 25 minutes ago)

WAAA 162100Z 19003KT 150V220 8000 FEW018 24/24 Q1009 NOSIG

Aviation forecast (TAF) for Toraja Airport

2024/06/16 18:00 (retrieved 3 hours ago)

TAF WAFB 161700Z 1618/1706 00000KT 5000 RA BKN015 BECMG 1700/1702 06009KT 9999 BKN017